Time;durP1;ratioP1;P1;durP2;ratioP2;P2;SDS_P1;SDS_P2;PMS_P1;PMS_P2;Temp;Humidity;BMP_temperature;BMP_pressure;BME280_temperature;BME280_humidity;BME280_pressure;Samples;Min_cycle;Max_cycle;Signal;HPM_P1;HPM_P2
2023/07/19 00:02:21;;;;;;;14.13;6.80;;;;;;;24.91;52.24;100352.58;126656;1086;104179;-77
2023/07/19 00:04:49;;;;;;;12.10;6.80;;;;;;;24.89;52.64;100357.12;126510;1086;104254;-77
2023/07/19 00:07:18;;;;;;;13.83;7.00;;;;;;;24.88;52.60;100350.84;126607;1086;102093;-77
2023/07/19 00:09:46;;;;;;;14.17;7.13;;;;;;;24.87;52.30;100353.57;126455;1086;101817;-77
2023/07/19 00:12:15;;;;;;;13.73;7.27;;;;;;;24.85;52.60;100356.30;126597;1086;104190;-77
2023/07/19 00:14:43;;;;;;;16.50;7.60;;;;;;;24.84;52.45;100348.28;126293;1086;104314;-77
2023/07/19 00:17:12;;;;;;;17.53;7.40;;;;;;;24.78;52.44;100357.39;126569;1086;104219;-77
2023/07/19 00:19:40;;;;;;;13.27;7.10;;;;;;;24.72;52.65;100357.55;126509;1086;101896;-78
2023/07/19 00:22:09;;;;;;;14.23;7.30;;;;;;;24.65;52.57;100359.51;126515;1086;104304;-78
2023/07/19 00:24:38;;;;;;;13.77;7.17;;;;;;;24.63;52.63;100361.33;126526;1086;102155;-78
2023/07/19 00:27:07;;;;;;;15.87;7.60;;;;;;;24.62;52.78;100356.91;126559;1086;101842;-77
2023/07/19 00:29:36;;;;;;;18.50;7.20;;;;;;;24.64;52.82;100352.37;126445;1086;104220;-77
2023/07/19 00:32:07;;;;;;;16.03;7.60;;;;;;;24.58;52.75;100358.75;126191;1086;101874;-77
2023/07/19 00:34:36;;;;;;;13.87;7.53;;;;;;;24.50;52.68;100341.94;126549;1085;104207;-77
2023/07/19 00:37:05;;;;;;;15.23;7.30;;;;;;;24.48;53.15;100351.84;126561;1086;104218;-78
2023/07/19 00:39:35;;;;;;;15.80;7.40;;;;;;;24.46;53.10;100339.38;126555;1086;104334;-78
2023/07/19 00:42:04;;;;;;;15.67;7.30;;;;;;;24.44;53.66;100338.54;126503;1086;104184;-77
2023/07/19 00:44:33;;;;;;;16.63;7.57;;;;;;;24.45;53.11;100340.28;126566;1086;104188;-78
2023/07/19 00:47:03;;;;;;;16.37;7.13;;;;;;;24.43;53.16;100347.49;126582;1086;102697;-77
2023/07/19 00:49:32;;;;;;;13.40;7.37;;;;;;;24.39;53.15;100335.97;126506;1086;104325;-78
2023/07/19 00:52:03;;;;;;;15.97;7.43;;;;;;;24.37;52.92;100338.69;126637;1085;104783;-77
2023/07/19 00:54:32;;;;;;;16.33;7.23;;;;;;;24.36;53.09;100328.87;126509;1086;104184;-77
2023/07/19 00:57:03;;;;;;;13.20;7.37;;;;;;;24.36;52.80;100326.19;126556;1086;104165;-77
2023/07/19 00:59:34;;;;;;;15.50;7.35;;;;;;;24.42;53.05;100319.80;126564;1086;104171;-78
2023/07/19 01:02:03;;;;;;;13.77;7.20;;;;;;;24.48;53.09;100324.12;126601;1086;104242;-78
2023/07/19 01:04:32;;;;;;;16.73;6.97;;;;;;;24.48;53.22;100319.66;126656;1086;101822;-78
2023/07/19 01:07:03;;;;;;;16.77;7.60;;;;;;;24.49;52.82;100318.72;126552;1086;101848;-77
2023/07/19 01:09:32;;;;;;;15.97;7.20;;;;;;;24.55;52.62;100317.69;126508;1086;101930;-77
2023/07/19 01:12:03;;;;;;;19.13;7.67;;;;;;;24.55;52.84;100301.59;126496;1086;101902;-77
2023/07/19 01:14:31;;;;;;;16.63;7.47;;;;;;;24.53;52.77;100307.00;126365;1086;108273;-78
2023/07/19 01:17:00;;;;;;;14.83;7.17;;;;;;;24.53;52.48;100304.32;126547;1086;104171;-78
2023/07/19 01:19:28;;;;;;;14.13;7.20;;;;;;;24.52;52.76;100315.09;126559;1086;104281;-78
2023/07/19 01:21:58;;;;;;;16.30;7.33;;;;;;;24.50;52.73;100319.62;126601;1086;102150;-77
2023/07/19 01:24:26;;;;;;;20.00;7.77;;;;;;;24.48;52.65;100318.75;126506;1086;104291;-78
2023/07/19 01:26:56;;;;;;;14.97;7.17;;;;;;;24.46;52.84;100324.16;126524;1086;104364;-77
2023/07/19 01:29:24;;;;;;;14.20;7.17;;;;;;;24.46;52.86;100326.83;126553;1086;104226;-77
2023/07/19 01:31:53;;;;;;;17.67;7.60;;;;;;;24.44;52.90;100327.81;126504;1085;104185;-77
2023/07/19 01:34:21;;;;;;;15.45;7.50;;;;;;;24.37;52.99;100327.05;126465;1085;102316;-77
2023/07/19 01:36:50;;;;;;;17.23;7.67;;;;;;;24.34;53.17;100327.12;126502;1086;101861;-77
2023/07/19 01:39:18;;;;;;;16.27;7.17;;;;;;;24.32;53.16;100331.66;126489;1086;104318;-77
2023/07/19 01:41:47;;;;;;;18.43;8.00;;;;;;;24.28;53.03;100328.18;126513;1086;104270;-77
2023/07/19 01:44:18;;;;;;;14.53;7.47;;;;;;;24.26;52.93;100319.27;126489;1086;101823;-78
2023/07/19 01:46:46;;;;;;;15.60;7.87;;;;;;;24.23;53.26;100325.60;126583;1085;101861;-78
2023/07/19 01:49:15;;;;;;;15.23;7.97;;;;;;;24.22;53.36;100323.83;126534;1086;102089;-78
2023/07/19 01:51:44;;;;;;;16.45;7.80;;;;;;;24.23;53.45;100311.30;126424;1086;101947;-77
2023/07/19 01:54:12;;;;;;;14.60;7.40;;;;;;;24.24;53.10;100310.39;126482;1086;104238;-77
2023/07/19 01:56:41;;;;;;;18.80;8.00;;;;;;;24.25;53.15;100316.62;126506;1086;104213;-78
2023/07/19 01:59:09;;;;;;;15.67;7.63;;;;;;;24.28;53.29;100308.50;126491;1086;104162;-77
2023/07/19 02:01:38;;;;;;;15.80;7.67;;;;;;;24.29;53.25;100303.11;126494;1086;101892;-77
2023/07/19 02:04:06;;;;;;;16.70;7.63;;;;;;;24.31;53.12;100303.97;126617;1086;101983;-77
2023/07/19 02:06:35;;;;;;;19.60;7.50;;;;;;;24.28;53.34;100309.41;126558;1086;102284;-78
2023/07/19 02:09:04;;;;;;;14.63;7.73;;;;;;;24.25;53.67;100311.26;126556;1086;104242;-78
2023/07/19 02:11:35;;;;;;;16.43;7.97;;;;;;;24.23;53.64;100303.25;126566;1086;104218;-78
2023/07/19 02:14:04;;;;;;;15.50;7.40;;;;;;;24.24;53.80;100313.07;126499;1086;104196;-77
2023/07/19 02:16:33;;;;;;;13.67;7.53;;;;;;;24.18;53.68;100311.44;126547;1085;101969;-77
2023/07/19 02:19:03;;;;;;;17.57;7.97;;;;;;;24.14;53.84;100325.81;126546;1086;104184;-78
2023/07/19 02:21:31;;;;;;;16.33;7.90;;;;;;;24.08;53.99;100331.31;126587;1086;102465;-77
2023/07/19 02:24:00;;;;;;;18.03;7.80;;;;;;;24.00;53.88;100330.62;126585;1086;104231;-77
2023/07/19 02:26:29;;;;;;;14.97;7.67;;;;;;;24.00;54.44;100325.27;126502;1086;101800;-77
2023/07/19 02:28:57;;;;;;;18.35;8.30;;;;;;;23.97;54.72;100323.52;126490;1086;104178;-77
2023/07/19 02:31:26;;;;;;;17.13;8.33;;;;;;;23.92;55.05;100317.39;126520;1086;101880;-77
2023/07/19 02:33:54;;;;;;;20.10;7.97;;;;;;;23.93;55.53;100316.45;126444;1086;104210;-75
2023/07/19 02:36:23;;;;;;;17.10;8.33;;;;;;;23.93;55.53;100318.27;126553;1086;104152;-77
2023/07/19 02:38:52;;;;;;;20.63;8.73;;;;;;;23.91;55.88;100326.33;126467;1086;104158;-77
2023/07/19 02:41:20;;;;;;;19.27;8.50;;;;;;;23.88;55.96;100325.53;126463;1086;104231;-76
2023/07/19 02:43:49;;;;;;;17.23;8.17;;;;;;;23.81;56.21;100325.63;126547;1086;104225;-77
2023/07/19 02:46:17;;;;;;;19.80;8.40;;;;;;;23.83;56.35;100320.23;126571;1086;101897;-76
2023/07/19 02:48:46;;;;;;;19.40;8.60;;;;;;;23.86;56.51;100312.16;126491;1086;104219;-76
2023/07/19 02:51:14;;;;;;;17.10;8.13;;;;;;;23.82;56.49;100326.50;126511;1086;101964;-77
2023/07/19 02:53:43;;;;;;;17.83;8.40;;;;;;;23.74;57.21;100333.83;126411;1086;104210;-77
2023/07/19 02:56:11;;;;;;;20.57;9.30;;;;;;;23.66;57.16;100331.31;126571;1086;101942;-77
2023/07/19 02:58:40;;;;;;;17.37;8.30;;;;;;;23.58;57.95;100334.15;126508;1085;104226;-76
2023/07/19 03:01:09;;;;;;;16.43;7.63;;;;;;;23.49;57.37;100340.56;126556;1086;101845;-77
2023/07/19 03:03:37;;;;;;;16.53;8.07;;;;;;;23.44;57.69;100333.55;126553;1086;101928;-77
2023/07/19 03:06:06;;;;;;;20.67;8.07;;;;;;;23.50;57.89;100331.63;126489;1086;104370;-76
2023/07/19 03:08:36;;;;;;;17.40;8.27;;;;;;;23.59;58.25;100338.60;126449;1086;104282;-77
2023/07/19 03:11:06;;;;;;;17.43;8.37;;;;;;;23.59;58.13;100337.70;126505;1086;104274;-76
2023/07/19 03:13:34;;;;;;;17.27;7.97;;;;;;;23.56;58.20;100338.66;126514;1086;104146;-78
2023/07/19 03:16:05;;;;;;;17.63;8.40;;;;;;;23.53;58.13;100340.50;126587;1086;102330;-77
2023/07/19 03:18:33;;;;;;;18.93;8.73;;;;;;;23.49;58.22;100343.23;126541;1086;104152;-77
2023/07/19 03:21:03;;;;;;;15.25;8.00;;;;;;;23.48;58.37;100352.20;126542;1086;101813;-76
2023/07/19 03:23:31;;;;;;;18.60;8.33;;;;;;;23.48;58.68;100341.50;126470;1086;104319;-76
2023/07/19 03:26:00;;;;;;;15.40;8.27;;;;;;;23.44;58.72;100337.11;126497;1085;104376;-77
2023/07/19 03:28:30;;;;;;;17.47;8.50;;;;;;;23.35;59.15;100331.93;126578;1086;104263;-77
2023/07/19 03:30:59;;;;;;;20.43;8.30;;;;;;;23.30;59.43;100332.02;126188;1086;104357;-77
2023/07/19 03:33:28;;;;;;;20.25;8.30;;;;;;;23.24;59.08;100326.78;126373;1086;104175;-77
2023/07/19 03:35:56;;;;;;;16.77;8.27;;;;;;;23.26;59.34;100322.27;126512;1086;101845;-76
2023/07/19 03:38:25;;;;;;;14.13;7.80;;;;;;;23.32;59.39;100331.98;126468;1086;104247;-76
2023/07/19 03:41:03;;;;;;;16.43;8.33;;;;;;;23.31;59.78;100323.09;126438;1086;104293;-76
2023/07/19 03:43:32;;;;;;;17.90;8.13;;;;;;;23.30;59.54;100325.80;126417;1086;102078;-77
2023/07/19 03:46:01;;;;;;;19.97;8.87;;;;;;;23.33;60.03;100325.73;126324;1086;104210;-77
2023/07/19 03:48:30;;;;;;;18.67;8.27;;;;;;;23.38;59.68;100333.67;126424;1086;104283;-77
2023/07/19 03:51:00;;;;;;;18.33;8.60;;;;;;;23.44;60.04;100323.72;126506;1086;102222;-76
2023/07/19 03:53:29;;;;;;;19.17;8.70;;;;;;;23.48;59.72;100327.20;126411;1086;104315;-77
2023/07/19 03:55:59;;;;;;;19.97;8.50;;;;;;;23.53;59.94;100322.66;126466;1086;102741;-78
2023/07/19 03:58:31;;;;;;;17.60;8.40;;;;;;;23.61;59.90;100318.02;126585;1086;104024;-77
2023/07/19 04:01:00;;;;;;;17.70;8.30;;;;;;;23.72;60.11;100312.44;126583;1086;102193;-78
2023/07/19 04:03:29;;;;;;;19.73;8.63;;;;;;;23.74;59.67;100309.72;126577;1086;104743;-77
2023/07/19 04:05:58;;;;;;;20.17;8.60;;;;;;;23.73;59.42;100308.81;126576;1086;104203;-76
2023/07/19 04:08:32;;;;;;;17.10;8.37;;;;;;;23.72;59.47;100315.11;126522;1086;104057;-76
2023/07/19 04:11:00;;;;;;;21.10;9.08;;;;;;;23.74;59.86;100321.30;126689;1086;101807;-77
2023/07/19 04:13:29;;;;;;;18.30;8.27;;;;;;;23.82;59.47;100319.34;126539;1086;102429;-76
2023/07/19 04:15:58;;;;;;;17.77;8.27;;;;;;;23.95;59.23;100313.73;126546;1086;102141;-75
2023/07/19 04:18:27;;;;;;;18.17;9.37;;;;;;;24.03;59.10;100311.79;126656;1086;104232;-75
2023/07/19 04:20:57;;;;;;;18.37;8.60;;;;;;;23.99;59.08;100316.31;126529;1086;104200;-75
2023/07/19 04:23:25;;;;;;;18.80;8.87;;;;;;;23.99;58.91;100313.64;126604;1086;104187;-75
2023/07/19 04:25:55;;;;;;;18.20;8.50;;;;;;;24.09;58.63;100308.97;126567;1086;104225;-77
2023/07/19 04:28:25;;;;;;;19.27;9.10;;;;;;;24.17;58.81;100306.98;126243;1086;104289;-75
2023/07/19 04:30:54;;;;;;;25.87;8.93;;;;;;;24.29;58.73;100307.59;126237;1086;101973;-76
2023/07/19 04:33:22;;;;;;;18.33;8.40;;;;;;;24.41;58.75;100312.66;126631;1086;104049;-77
2023/07/19 04:35:51;;;;;;;15.47;8.30;;;;;;;24.52;58.55;100312.41;126706;1086;104185;-76
2023/07/19 04:38:20;;;;;;;17.83;8.40;;;;;;;24.59;58.09;100316.74;126590;1086;102180;-77
2023/07/19 04:40:48;;;;;;;17.67;8.83;;;;;;;24.66;58.06;100318.33;126605;1086;101945;-77
2023/07/19 04:43:17;;;;;;;17.97;8.33;;;;;;;24.72;57.83;100319.98;126166;1086;104251;-77
2023/07/19 04:45:49;;;;;;;21.93;8.70;;;;;;;24.75;57.59;100326.14;126526;1085;104325;-80
2023/07/19 04:48:17;;;;;;;22.90;8.40;;;;;;;24.75;57.87;100327.95;126693;1086;102064;-77
2023/07/19 04:50:46;;;;;;;18.90;8.60;;;;;;;24.78;57.83;100325.20;126738;1086;104206;-76
2023/07/19 04:53:14;;;;;;;18.40;8.13;;;;;;;24.86;57.61;100322.31;126845;1086;102324;-80
2023/07/19 04:55:44;;;;;;;20.63;8.27;;;;;;;24.93;57.32;100322.11;126865;1086;101842;-77
2023/07/19 04:58:14;;;;;;;18.77;7.73;;;;;;;25.03;56.78;100312.00;126474;1086;102392;-76
2023/07/19 05:00:42;;;;;;;18.23;8.30;;;;;;;25.10;56.82;100313.61;126713;1086;104289;-75
2023/07/19 05:03:12;;;;;;;22.77;8.00;;;;;;;25.14;56.43;100316.21;126668;1086;104257;-75
2023/07/19 05:05:41;;;;;;;21.13;8.23;;;;;;;25.12;56.35;100316.25;126967;1086;102387;-76
2023/07/19 05:08:12;;;;;;;17.83;7.37;;;;;;;25.14;55.98;100313.52;126822;1086;102358;-75
2023/07/19 05:10:41;;;;;;;17.15;7.00;;;;;;;25.21;56.20;100309.73;126777;1086;102093;-76
2023/07/19 05:13:10;;;;;;;15.50;6.47;;;;;;;25.26;55.96;100313.19;126628;1086;104242;-74
2023/07/19 05:15:39;;;;;;;13.10;5.60;;;;;;;25.26;54.45;100313.19;126952;1086;104216;-74
2023/07/19 05:18:12;;;;;;;13.10;5.70;;;;;;;25.27;53.98;100314.92;126952;1086;101960;-74
2023/07/19 05:20:44;;;;;;;12.30;5.03;;;;;;;25.29;53.51;100308.63;126946;1086;102371;-76
2023/07/19 05:23:14;;;;;;;14.07;5.50;;;;;;;25.35;53.52;100302.19;127033;1086;104172;-77
2023/07/19 05:25:45;;;;;;;15.43;5.67;;;;;;;25.43;52.82;100301.97;127001;1086;104165;-78
2023/07/19 05:28:14;;;;;;;12.90;5.80;;;;;;;25.46;52.57;100310.84;127010;1086;101978;-77
2023/07/19 05:30:43;;;;;;;15.70;5.80;;;;;;;25.51;52.13;100312.48;127143;1086;104187;-77
2023/07/19 05:33:14;;;;;;;11.70;5.27;;;;;;;25.58;51.87;100319.45;127062;1086;104207;-74
2023/07/19 05:35:49;;;;;;;15.47;5.37;;;;;;;25.65;51.75;100315.67;127010;1086;104207;-73
2023/07/19 05:38:22;;;;;;;14.30;5.50;;;;;;;25.72;51.76;100321.73;127379;1086;102849;-77
2023/07/19 05:41:04;;;;;;;11.70;5.00;;;;;;;25.79;51.38;100315.27;127303;1086;104203;-75
2023/07/19 05:43:34;;;;;;;9.57;4.80;;;;;;;25.87;50.98;100306.94;127276;1086;104053;-75
2023/07/19 05:46:07;;;;;;;10.80;5.03;;;;;;;25.95;50.32;100304.92;127157;1086;102989;-76
2023/07/19 05:48:37;;;;;;;14.20;4.50;;;;;;;26.01;49.61;100302.94;127343;1086;102207;-76
2023/07/19 05:51:07;;;;;;;14.63;5.03;;;;;;;26.08;49.71;100303.62;127337;1086;102139;-75
2023/07/19 05:53:35;;;;;;;10.43;4.87;;;;;;;26.12;49.15;100299.91;128308;1085;101867;-76
2023/07/19 05:56:04;;;;;;;13.27;5.57;;;;;;;26.22;49.27;100294.24;126755;1086;104236;-76
2023/07/19 05:58:35;;;;;;;9.97;4.77;;;;;;;26.31;48.79;100293.95;127258;1086;104228;-76
2023/07/19 06:01:07;;;;;;;11.57;4.93;;;;;;;26.45;47.93;100305.12;127149;1086;102213;-77
2023/07/19 06:03:40;;;;;;;11.27;4.93;;;;;;;26.58;47.56;100302.02;127345;1086;102286;-78
2023/07/19 06:06:14;;;;;;;13.67;4.73;;;;;;;26.67;47.15;100296.36;127255;1084;102552;-75
2023/07/19 06:08:52;;;;;;;12.10;4.73;;;;;;;26.78;46.79;100296.86;126358;1086;104232;-73
2023/07/19 06:11:27;;;;;;;13.83;4.70;;;;;;;26.79;46.77;100293.25;126475;1086;102300;-77
2023/07/19 06:14:02;;;;;;;11.13;4.67;;;;;;;26.77;46.01;100287.05;126254;1086;102397;-75
2023/07/19 06:16:31;;;;;;;10.73;5.00;;;;;;;26.82;45.73;100290.45;127240;1086;101844;-75
2023/07/19 06:19:00;;;;;;;10.20;4.10;;;;;;;26.82;44.76;100282.38;126302;1085;103503;-74
2023/07/19 06:21:32;;;;;;;8.40;4.20;;;;;;;26.86;45.13;100286.70;126336;1086;104191;-77
2023/07/19 06:24:11;;;;;;;10.10;4.13;;;;;;;26.96;44.55;100294.45;126847;1086;101992;-78
2023/07/19 06:26:40;;;;;;;11.03;4.20;;;;;;;26.99;44.39;100288.95;126351;1086;104162;-73
2023/07/19 06:29:11;;;;;;;9.63;4.40;;;;;;;27.06;43.81;100287.81;126337;1086;101916;-72
2023/07/19 06:31:42;;;;;;;7.03;4.00;;;;;;;27.16;43.72;100278.48;126322;1086;104228;-75
2023/07/19 06:34:10;;;;;;;8.73;4.10;;;;;;;27.22;43.62;100278.25;127158;1085;101864;-76
2023/07/19 06:36:42;;;;;;;9.53;4.20;;;;;;;27.29;43.50;100280.72;127584;1084;102366;-74
2023/07/19 06:39:13;;;;;;;11.30;4.67;;;;;;;27.36;43.23;100268.80;126482;1086;102137;-75
2023/07/19 06:41:42;;;;;;;12.10;4.60;;;;;;;27.36;42.79;100264.31;126368;1086;104155;-75
2023/07/19 06:44:12;;;;;;;11.90;4.90;;;;;;;27.41;42.50;100269.48;126390;1086;104711;-76
2023/07/19 06:46:52;;;;;;;11.97;4.57;;;;;;;27.49;42.90;100261.11;126421;1086;104235;-73
2023/07/19 06:49:25;;;;;;;14.57;5.03;;;;;;;27.63;42.91;100250.70;126286;1086;102077;-75
2023/07/19 06:51:54;;;;;;;12.60;4.73;;;;;;;27.84;42.64;100259.74;126434;1086;104220;-76
2023/07/19 06:54:30;;;;;;;15.07;4.87;;;;;;;28.12;42.07;100251.44;127542;1085;104152;-82
2023/07/19 06:57:07;;;;;;;10.53;4.70;;;;;;;28.38;41.86;100254.89;127339;1086;104194;-78
2023/07/19 06:59:39;;;;;;;12.10;4.87;;;;;;;28.60;41.31;100270.20;127504;1086;102101;-80
2023/07/19 07:02:21;;;;;;;11.00;4.50;;;;;;;28.78;41.43;100273.91;127803;1086;102038;-77
2023/07/19 07:04:51;;;;;;;8.47;4.10;;;;;;;28.91;40.84;100269.73;126516;1086;104172;-75
2023/07/19 07:07:38;;;;;;;9.70;4.67;;;;;;;28.97;40.65;100269.47;126662;1086;104167;-79
2023/07/19 07:13:38;;;;;;;;;;;;;;;29.08;40.40;100262.69;128861;1085;101574;-76
2023/07/19 07:16:15;;;;;;;8.90;3.90;;;;;;;29.20;40.00;100259.47;126625;1086;104024;-76
2023/07/19 07:19:15;;;;;;;7.67;4.10;;;;;;;29.29;39.78;100256.34;127173;1086;101982;-77
2023/07/19 07:21:46;;;;;;;10.97;4.60;;;;;;;29.48;39.41;100250.09;127730;1085;102289;-77
2023/07/19 07:24:17;;;;;;;8.93;4.40;;;;;;;29.61;39.41;100253.98;126242;1086;101867;-77
2023/07/19 07:26:57;;;;;;;9.30;4.50;;;;;;;29.69;38.98;100253.62;126603;1085;104232;-78
2023/07/19 07:29:27;;;;;;;9.00;4.43;;;;;;;29.67;38.88;100256.39;127275;1085;101911;-77
2023/07/19 07:31:59;;;;;;;9.98;4.45;;;;;;;29.46;38.67;100242.05;127741;1085;107043;-77
2023/07/19 07:34:28;;;;;;;9.27;4.53;;;;;;;29.38;38.61;100253.22;127222;1085;102000;-77
2023/07/19 07:36:58;;;;;;;10.23;4.67;;;;;;;29.38;38.61;100249.65;127937;1085;102166;-74
2023/07/19 07:39:30;;;;;;;11.30;4.53;;;;;;;29.45;38.59;100256.53;126647;1086;104296;-78
2023/07/19 07:42:01;;;;;;;9.67;4.53;;;;;;;29.57;38.03;100253.23;126598;1085;104216;-78
2023/07/19 07:44:35;;;;;;;10.10;4.45;;;;;;;29.65;38.15;100235.77;127779;1085;104370;-78
2023/07/19 07:47:10;;;;;;;10.37;4.70;;;;;;;29.84;38.04;100249.31;127887;1085;101884;-75
2023/07/19 07:49:52;;;;;;;11.20;4.13;;;;;;;30.03;37.79;100233.95;126410;1086;104203;-72
2023/07/19 07:52:24;;;;;;;10.63;4.27;;;;;;;30.21;37.55;100233.97;126338;1086;104222;-74
2023/07/19 07:54:59;;;;;;;8.37;4.53;;;;;;;30.32;37.28;100223.47;126490;1086;102250;-75
2023/07/19 07:57:33;;;;;;;7.60;4.10;;;;;;;30.41;36.82;100227.59;128756;1085;104149;-76
2023/07/19 08:00:10;;;;;;;10.17;4.27;;;;;;;30.46;36.44;100226.41;126535;1086;101977;-79
2023/07/19 08:02:45;;;;;;;11.00;4.33;;;;;;;30.50;36.54;100228.95;126580;1086;111000;-77
2023/07/19 08:05:29;;;;;;;12.58;4.35;;;;;;;30.52;36.54;100221.62;126550;1086;104146;-76
2023/07/19 08:08:01;;;;;;;11.03;3.87;;;;;;;30.75;36.21;100221.28;127677;1085;104232;-77
2023/07/19 08:10:41;;;;;;;10.33;4.40;;;;;;;31.01;35.97;100224.48;127522;1085;104140;-77
2023/07/19 08:13:11;;;;;;;12.45;4.65;;;;;;;31.29;35.66;100231.08;126283;1086;104026;-75
2023/07/19 08:15:41;;;;;;;10.10;4.13;;;;;;;31.51;35.52;100230.78;127269;1086;104204;-76
2023/07/19 08:18:10;;;;;;;9.05;4.00;;;;;;;31.71;35.47;100216.11;126477;1086;102097;-80
2023/07/19 08:20:40;;;;;;;9.10;4.13;;;;;;;31.88;34.80;100225.99;126529;1086;104114;-77
2023/07/19 08:23:11;;;;;;;10.17;4.40;;;;;;;31.94;34.50;100222.92;126265;1086;105394;-77
2023/07/19 08:25:42;;;;;;;14.27;4.70;;;;;;;31.89;34.15;100225.04;126563;1086;102230;-78
2023/07/19 08:28:11;;;;;;;10.87;4.17;;;;;;;31.90;34.25;100219.52;126468;1086;104191;-73
2023/07/19 08:30:39;;;;;;;8.53;4.37;;;;;;;31.95;34.17;100221.11;126374;1086;102281;-74
2023/07/19 08:33:08;;;;;;;8.90;4.10;;;;;;;31.85;33.94;100209.89;126333;1086;104292;-74
2023/07/19 08:35:38;;;;;;;9.30;3.93;;;;;;;31.85;33.52;100213.50;126249;1086;104194;-75
2023/07/19 08:38:07;;;;;;;9.40;4.23;;;;;;;31.76;33.79;100199.57;127495;1085;103751;-76
2023/07/19 08:40:39;;;;;;;11.63;4.70;;;;;;;31.92;33.74;100202.30;126335;1086;104162;-75
2023/07/19 08:43:08;;;;;;;8.07;4.37;;;;;;;32.18;33.84;100185.38;126531;1086;104193;-79
2023/07/19 08:45:38;;;;;;;7.90;4.57;;;;;;;32.34;33.58;100184.46;127741;1086;104638;-78
2023/07/19 08:48:08;;;;;;;10.23;4.40;;;;;;;32.40;33.54;100170.52;126591;1086;104158;-76
2023/07/19 08:50:41;;;;;;;9.53;4.63;;;;;;;32.38;33.46;100175.14;126783;1086;102431;-77
2023/07/19 08:53:09;;;;;;;8.05;4.10;;;;;;;32.30;33.25;100174.74;126679;1086;104254;-79
2023/07/19 08:55:39;;;;;;;12.23;4.67;;;;;;;32.20;33.38;100171.72;127681;1085;104178;-78
2023/07/19 08:58:09;;;;;;;10.03;4.60;;;;;;;32.10;33.11;100165.08;126818;1086;102060;-79
2023/07/19 09:00:39;;;;;;;11.73;4.60;;;;;;;32.01;33.28;100156.49;128281;1086;102079;-80
2023/07/19 09:03:09;;;;;;;10.50;5.10;;;;;;;31.94;33.47;100167.80;127242;1086;101768;-76
2023/07/19 09:05:48;;;;;;;10.60;4.93;;;;;;;31.94;33.31;100165.09;127649;1086;101774;-80
2023/07/19 09:08:21;;;;;;;11.90;5.00;;;;;;;32.02;33.21;100162.78;126714;1086;104155;-79
2023/07/19 09:10:56;;;;;;;9.57;5.20;;;;;;;32.12;33.28;100155.03;126464;1086;104264;-78
2023/07/19 09:13:25;;;;;;;12.40;5.00;;;;;;;32.25;33.02;100153.30;126467;1086;101990;-80
2023/07/19 09:16:03;;;;;;;8.37;4.87;;;;;;;32.37;33.25;100155.28;126695;1086;104174;-79
2023/07/19 09:18:40;;;;;;;10.37;5.03;;;;;;;32.57;33.21;100162.20;126597;1086;104343;-75
2023/07/19 09:21:12;;;;;;;8.83;5.00;;;;;;;32.84;33.03;100160.62;126369;1086;104203;-76
2023/07/19 09:23:49;;;;;;;11.33;5.37;;;;;;;32.92;32.49;100156.43;126640;1086;104247;-79
2023/07/19 09:26:18;;;;;;;10.33;5.20;;;;;;;33.00;32.45;100153.23;126654;1086;104156;-76
2023/07/19 09:28:47;;;;;;;11.63;5.07;;;;;;;32.99;32.59;100151.50;126415;1086;101870;-78
2023/07/19 09:31:19;;;;;;;10.63;4.80;;;;;;;33.02;32.40;100144.98;126570;1085;104190;-78
2023/07/19 09:34:16;;;;;;;9.50;4.93;;;;;;;32.96;32.29;100141.69;126948;1086;104155;-79
2023/07/19 09:36:54;;;;;;;8.90;5.20;;;;;;;32.95;32.43;100139.94;126756;1086;102227;-75
2023/07/19 09:39:23;;;;;;;10.43;5.27;;;;;;;33.08;32.40;100133.72;127750;1085;102200;-80
2023/07/19 09:41:53;;;;;;;9.23;5.00;;;;;;;33.14;32.33;100134.22;127880;1085;102050;-80
2023/07/19 09:44:23;;;;;;;9.53;5.30;;;;;;;33.18;32.41;100131.30;126517;1086;104294;-78
2023/07/19 09:46:52;;;;;;;10.87;4.97;;;;;;;33.26;32.34;100121.69;127555;1086;104225;-81
2023/07/19 09:49:21;;;;;;;8.00;5.20;;;;;;;33.34;32.21;100109.45;127905;1085;101766;-77
2023/07/19 09:51:51;;;;;;;12.83;5.20;;;;;;;33.44;31.92;100107.84;126705;1086;101920;-80
2023/07/19 09:54:24;;;;;;;10.90;5.40;;;;;;;33.48;31.99;100106.69;126794;1085;104306;-76
2023/07/19 09:56:53;;;;;;;10.07;5.43;;;;;;;33.41;31.89;100099.89;127704;1085;104216;-79
2023/07/19 09:59:27;;;;;;;10.43;5.07;;;;;;;33.41;31.64;100099.89;126548;1086;104290;-81
2023/07/19 10:01:58;;;;;;;7.23;4.83;;;;;;;33.52;31.66;100105.52;127878;1085;102032;-81
2023/07/19 10:04:28;;;;;;;13.10;5.20;;;;;;;33.64;31.68;100101.98;126609;1086;104208;-79
2023/07/19 10:07:08;;;;;;;12.53;5.00;;;;;;;33.88;31.69;100105.86;127679;1086;104149;-86
2023/07/19 10:09:43;;;;;;;10.17;5.13;;;;;;;34.13;31.59;100097.77;126619;1086;104268;-78
2023/07/19 10:12:24;;;;;;;11.47;5.33;;;;;;;34.22;31.47;100093.55;127356;1086;102065;-82
2023/07/19 10:14:55;;;;;;;10.97;5.20;;;;;;;34.22;31.42;100093.55;127736;1086;104178;-79
2023/07/19 10:17:26;;;;;;;11.37;5.27;;;;;;;34.19;31.24;100077.43;127733;1084;102165;-76
2023/07/19 10:20:05;;;;;;;10.20;5.27;;;;;;;34.04;31.17;100074.77;127537;1086;102514;-80
2023/07/19 10:23:03;;;;;;;11.93;5.87;;;;;;;33.91;31.33;100071.17;127003;1086;104217;-78
2023/07/19 10:25:36;;;;;;;11.80;5.40;;;;;;;33.78;31.08;100076.56;127439;1085;104161;-79
2023/07/19 10:28:14;;;;;;;13.90;5.13;;;;;;;33.56;31.11;100063.52;127512;1086;104184;-77
2023/07/19 10:30:54;;;;;;;10.30;5.00;;;;;;;33.36;31.24;100073.01;126958;1086;104171;-78
2023/07/19 10:33:25;;;;;;;13.40;5.10;;;;;;;33.20;31.38;100073.16;127111;1086;104155;-80
2023/07/19 10:35:59;;;;;;;11.73;5.80;;;;;;;33.10;31.51;100074.72;126541;1085;102045;-79
2023/07/19 10:38:30;;;;;;;12.30;5.33;;;;;;;32.95;31.22;100085.59;126863;1086;101898;-79
2023/07/19 10:41:11;;;;;;;9.60;5.40;;;;;;;32.86;31.39;100079.88;126761;1086;102048;-77
2023/07/19 10:43:40;;;;;;;11.53;5.13;;;;;;;32.80;31.46;100072.98;126426;1086;104184;-76
2023/07/19 10:46:12;;;;;;;12.10;5.43;;;;;;;32.70;31.36;100069.99;126695;1086;104178;-77
2023/07/19 10:48:42;;;;;;;10.67;5.03;;;;;;;32.66;31.88;100059.42;127381;1086;102556;-77
2023/07/19 10:51:12;;;;;;;11.00;5.50;;;;;;;32.59;31.70;100059.77;127349;1086;102118;-77
2023/07/19 10:53:47;;;;;;;11.80;5.47;;;;;;;32.54;31.90;100056.48;127601;1086;102633;-76
2023/07/19 10:56:18;;;;;;;13.00;5.47;;;;;;;32.51;31.67;100061.25;126809;1086;107913;-76
2023/07/19 10:58:50;;;;;;;12.77;5.30;;;;;;;32.37;32.33;100043.11;126461;1085;102325;-77
2023/07/19 11:01:26;;;;;;;12.90;5.80;;;;;;;32.42;32.10;100044.55;126219;1086;104219;-75
2023/07/19 11:04:04;;;;;;;11.90;5.73;;;;;;;32.37;32.38;100049.40;126349;1086;104239;-78
2023/07/19 11:06:38;;;;;;;10.63;5.27;;;;;;;32.23;32.37;100050.25;126370;1086;117767;-77
2023/07/19 11:09:12;;;;;;;10.37;5.53;;;;;;;32.11;32.42;100047.43;126627;1086;104187;-78
2023/07/19 11:11:50;;;;;;;16.27;6.00;;;;;;;32.07;32.71;100036.73;127623;1086;102328;-80
2023/07/19 11:14:32;;;;;;;14.28;5.65;;;;;;;32.01;32.80;100045.25;127406;1086;102161;-78
2023/07/19 11:17:01;;;;;;;13.93;5.73;;;;;;;31.84;32.94;100048.98;126684;1086;104310;-73
2023/07/19 11:19:38;;;;;;;15.07;5.93;;;;;;;31.81;33.23;100034.73;127131;1086;104165;-80
2023/07/19 11:22:07;;;;;;;11.17;5.70;;;;;;;31.76;33.34;100034.12;128315;1085;104319;-79
2023/07/19 11:24:39;;;;;;;13.70;5.30;;;;;;;31.71;33.52;100032.58;127977;1085;102070;-78